Terminal Aerodrome Forecast
Issued by NWS

Home | Current Version | Previous Version | Text Only | Print | Product List | Glossary On
Versions: 1 2 3 4 5 6 7 8 9 10 11 12 13 14 15 16 17 18 19 20 21 22
000
FTUS41 KOKX 130800 AAA
TAFSWF
TAF AMD
KSWF 130841Z 1309/1412 VRB03KT P6SM SCT050 BKN090
      TEMPO 1309/1312 4SM BR
     FM131300 23010KT P6SM SCT060 SCT120 BKN250
     FM131500 22010G18KT P6SM SCT060 BKN150
     FM132000 22013G21KT P6SM VCTS BKN050CB BKN150
     FM140000 22009KT P6SM VCTS BKN050CB BKN100
     FM140300 22007KT 5SM BR BKN040 BKN080
      AMD NOT SKED=

USA.gov is the U.S. government's official web portal to all federal, state and local government web resources and services.